createdAt,value
2022-12-28T00:00:35.262Z,1.50
2022-12-28T00:03:59.586Z,1.55
2022-12-28T00:07:01.256Z,1.58
2022-12-28T00:10:03.184Z,1.59
2022-12-28T00:13:04.725Z,1.57
2022-12-28T00:16:14.208Z,1.50
2022-12-28T00:19:16.687Z,1.37
2022-12-28T00:22:18.353Z,1.27
2022-12-28T00:25:19.899Z,1.21
2022-12-28T00:28:21.805Z,1.15
2022-12-28T00:31:23.663Z,1.11
2022-12-28T00:34:26.458Z,1.03
2022-12-28T00:37:28.540Z,0.94
2022-12-28T00:40:30.050Z,0.93
2022-12-28T00:43:32.089Z,0.94
2022-12-28T00:46:33.791Z,0.93
2022-12-28T00:49:35.271Z,0.89
2022-12-28T00:52:36.959Z,0.84
2022-12-28T00:55:39.345Z,0.79
2022-12-28T00:58:41.702Z,0.74
2022-12-28T01:01:43.546Z,0.65
2022-12-28T01:04:45.330Z,0.58
2022-12-28T01:07:46.904Z,0.52
2022-12-28T01:10:48.568Z,0.46
2022-12-28T01:13:51.555Z,0.39
2022-12-28T01:16:53.232Z,0.30
2022-12-28T01:19:55.772Z,0.21
2022-12-28T01:22:57.418Z,0.12
2022-12-28T01:26:02.374Z,0.04
2022-12-28T01:29:04.164Z,-0.01
2022-12-28T01:32:06.595Z,-0.04
2022-12-28T01:35:08.536Z,-0.09
2022-12-28T01:38:10.122Z,-0.12
2022-12-28T01:41:14.602Z,-0.17
2022-12-28T01:44:16.420Z,-0.20
2022-12-28T01:47:28.829Z,-0.23
2022-12-28T01:50:30.620Z,-0.27
2022-12-28T01:53:32.328Z,-0.28
2022-12-28T01:56:33.926Z,-0.25
2022-12-28T01:59:39.566Z,-0.23
2022-12-28T02:03:02.565Z,-0.22
2022-12-28T02:06:08.731Z,-0.27
2022-12-28T02:09:14.559Z,-0.31
2022-12-28T02:12:17.338Z,-0.32
2022-12-28T02:15:23.062Z,-0.34
2022-12-28T02:18:25.133Z,-0.36
2022-12-28T02:21:44.193Z,-0.37
2022-12-28T02:24:45.744Z,-0.34
2022-12-28T02:28:18.330Z,-0.28
2022-12-28T02:32:00.641Z,-0.23
2022-12-28T02:35:34.062Z,-0.23
2022-12-28T02:39:05.929Z,-0.25
2022-12-28T02:42:07.994Z,-0.32
2022-12-28T02:45:38.292Z,-0.40
2022-12-28T02:48:44.856Z,-0.55
2022-12-28T02:52:02.717Z,-0.70
2022-12-28T02:55:07.088Z,-0.83
2022-12-28T02:58:31.028Z,-0.89
2022-12-28T03:01:53.446Z,-0.94
2022-12-28T03:05:18.885Z,-1.05
2022-12-28T03:08:49.974Z,-1.11
2022-12-28T03:11:56.700Z,-1.17
2022-12-28T03:15:12.026Z,-1.17
2022-12-28T03:18:16.601Z,-1.20
2022-12-28T03:21:18.607Z,-1.30
2022-12-28T03:24:20.218Z,-1.40
2022-12-28T03:27:22.309Z,-1.48
2022-12-28T03:30:24.357Z,-1.55
2022-12-28T03:33:25.957Z,-1.59
2022-12-28T03:36:31.004Z,-1.58
2022-12-28T03:39:52.778Z,-1.63
2022-12-28T03:42:55.921Z,-1.71
2022-12-28T03:46:21.727Z,-1.78
2022-12-28T03:49:23.936Z,-1.84
2022-12-28T03:52:26.076Z,-1.89
2022-12-28T03:55:27.869Z,-1.92
2022-12-28T03:58:29.463Z,-1.96
2022-12-28T04:01:31.265Z,-1.98
2022-12-28T04:04:32.877Z,-1.99
2022-12-28T04:07:34.484Z,-2.01
2022-12-28T04:10:36.042Z,-1.99
2022-12-28T04:13:37.910Z,-2.01
2022-12-28T04:16:39.377Z,-2.03
2022-12-28T04:19:40.953Z,-2.04
2022-12-28T04:22:42.560Z,-2.02
2022-12-28T04:25:44.324Z,-1.99
2022-12-28T04:28:46.325Z,-1.97
2022-12-28T04:31:48.105Z,-2.01
2022-12-28T04:34:50.990Z,-2.12
2022-12-28T04:37:52.575Z,-2.24
2022-12-28T04:40:54.216Z,-2.31
2022-12-28T04:43:55.889Z,-2.37
2022-12-28T04:46:57.590Z,-2.38
2022-12-28T04:49:59.343Z,-2.45
2022-12-28T04:53:00.866Z,-2.52
2022-12-28T04:56:06.965Z,-2.58
2022-12-28T04:59:08.653Z,-2.65
2022-12-28T05:02:10.420Z,-2.65
2022-12-28T05:05:12.022Z,-2.65
2022-12-28T05:08:13.703Z,-2.71
2022-12-28T05:11:18.400Z,-2.87
2022-12-28T05:14:19.939Z,-2.97
2022-12-28T05:17:21.617Z,-2.99
2022-12-28T05:20:23.203Z,-3.03
2022-12-28T05:23:24.776Z,-3.11
2022-12-28T05:26:28.808Z,-3.16
2022-12-28T05:29:30.462Z,-3.18
2022-12-28T05:32:32.037Z,-3.17
2022-12-28T05:35:35.320Z,-3.17
2022-12-28T05:38:37.263Z,-3.17
2022-12-28T05:41:38.956Z,-3.24
2022-12-28T05:44:40.676Z,-3.32
2022-12-28T05:47:42.365Z,-3.26
2022-12-28T05:50:43.994Z,-3.18
2022-12-28T05:53:45.904Z,-3.30
2022-12-28T05:56:49.919Z,-3.33
2022-12-28T05:59:51.509Z,-3.26
2022-12-28T06:02:55.029Z,-3.27
2022-12-28T06:05:56.767Z,-3.31
2022-12-28T06:08:58.711Z,-3.27
2022-12-28T06:12:00.352Z,-3.23
2022-12-28T06:15:01.965Z,-3.19
2022-12-28T06:18:03.837Z,-3.11
2022-12-28T06:21:14.062Z,-3.01
2022-12-28T06:24:15.661Z,-2.86
2022-12-28T06:27:17.203Z,-2.77
2022-12-28T06:30:18.938Z,-2.67
2022-12-28T06:33:20.565Z,-2.58
2022-12-28T06:36:24.823Z,-2.51
2022-12-28T06:39:26.467Z,-2.47
2022-12-28T06:42:28.048Z,-2.45
2022-12-28T06:45:29.733Z,-2.41
2022-12-28T06:48:32.865Z,-2.19
2022-12-28T06:51:36.486Z,-1.91
2022-12-28T06:54:38.302Z,-1.70
2022-12-28T06:57:39.865Z,-1.47
2022-12-28T07:00:41.418Z,-1.21
2022-12-28T07:03:44.356Z,-0.91
2022-12-28T07:06:46.048Z,-0.57
2022-12-28T07:09:47.573Z,-0.22
2022-12-28T07:12:49.341Z,0.09
2022-12-28T07:15:50.892Z,0.25
2022-12-28T07:18:52.853Z,0.52
2022-12-28T07:21:54.494Z,0.72
2022-12-28T07:24:56.024Z,0.65
2022-12-28T07:27:57.612Z,0.57
2022-12-28T07:30:59.348Z,0.65
2022-12-28T07:34:01.145Z,0.78
2022-12-28T07:37:02.780Z,0.82
2022-12-28T07:40:04.814Z,0.87
2022-12-28T07:43:06.486Z,0.93
2022-12-28T07:46:13.527Z,0.94
2022-12-28T07:49:15.121Z,0.93
2022-12-28T07:52:16.696Z,0.98
2022-12-28T07:55:18.345Z,1.05
2022-12-28T07:58:19.909Z,1.17
2022-12-28T08:01:23.808Z,1.28
2022-12-28T08:04:25.857Z,1.32
2022-12-28T08:07:27.490Z,1.36
2022-12-28T08:10:29.151Z,1.43
2022-12-28T08:13:34.471Z,1.50
2022-12-28T08:16:40.872Z,1.57
2022-12-28T08:19:42.591Z,1.64
2022-12-28T08:22:44.245Z,1.67
2022-12-28T08:25:46.007Z,1.76
2022-12-28T08:28:48.701Z,1.83
2022-12-28T08:31:50.508Z,1.93
2022-12-28T08:34:52.305Z,2.03
2022-12-28T08:37:56.999Z,2.14
2022-12-28T08:41:00.583Z,2.22
2022-12-28T08:44:02.476Z,2.28
2022-12-28T08:47:04.102Z,2.41
2022-12-28T08:50:06.058Z,2.67
2022-12-28T08:53:07.630Z,2.98
2022-12-28T08:56:12.180Z,3.09
2022-12-28T08:59:17.867Z,3.33
2022-12-28T09:02:19.546Z,3.71
2022-12-28T09:05:21.216Z,4.06
2022-12-28T09:08:22.634Z,4.25
2022-12-28T09:11:24.750Z,4.52
2022-12-28T09:14:26.403Z,4.78
2022-12-28T09:17:28.127Z,4.97
2022-12-28T09:20:29.777Z,5.27
2022-12-28T09:23:31.476Z,5.62
2022-12-28T09:26:36.872Z,5.91
2022-12-28T09:29:38.422Z,5.91
2022-12-28T09:32:40.064Z,5.69
2022-12-28T09:35:41.646Z,5.56
2022-12-28T09:38:43.724Z,5.40
2022-12-28T09:41:52.845Z,5.33
2022-12-28T09:45:03.700Z,5.12
2022-12-28T09:48:12.655Z,5.15
2022-12-28T09:51:14.797Z,5.24
2022-12-28T09:54:16.488Z,5.42
2022-12-28T09:57:19.130Z,5.66
2022-12-28T10:00:32.267Z,5.75
2022-12-28T10:03:41.614Z,6.00
2022-12-28T10:06:43.467Z,6.33
2022-12-28T10:09:45.761Z,6.46
2022-12-28T10:12:48.161Z,6.44
2022-12-28T10:15:50.764Z,6.26
2022-12-28T10:18:52.779Z,6.07
2022-12-28T10:22:03.125Z,6.13
2022-12-28T10:25:17.061Z,6.40
2022-12-28T10:28:21.407Z,6.05
2022-12-28T10:31:36.470Z,6.20
2022-12-28T10:34:53.371Z,6.34
2022-12-28T10:38:27.887Z,6.19
2022-12-28T10:41:36.150Z,5.94
2022-12-28T10:44:40.125Z,5.69
2022-12-28T10:47:44.805Z,5.44
2022-12-28T10:50:54.102Z,5.23
2022-12-28T10:53:57.734Z,5.07
2022-12-28T10:56:59.424Z,4.97
2022-12-28T11:00:33.349Z,4.95
2022-12-28T11:03:37.520Z,4.91
2022-12-28T11:06:59.344Z,4.90
2022-12-28T11:10:19.381Z,4.91
2022-12-28T11:13:22.157Z,4.89
2022-12-28T11:16:24.128Z,4.89
2022-12-28T11:19:26.101Z,4.88
2022-12-28T11:22:29.393Z,4.88
2022-12-28T11:25:33.373Z,4.87
2022-12-28T11:28:34.951Z,4.85
2022-12-28T11:31:43.723Z,4.82
2022-12-28T11:34:45.714Z,4.77
2022-12-28T11:37:58.182Z,4.69
2022-12-28T11:40:59.814Z,4.62
2022-12-28T11:44:01.990Z,4.57
2022-12-28T11:47:16.168Z,4.53
2022-12-28T11:50:33.483Z,4.46
2022-12-28T11:53:35.046Z,4.43
2022-12-28T11:56:36.636Z,4.43
2022-12-28T11:59:38.176Z,4.46
2022-12-28T12:02:40.178Z,4.49
2022-12-28T12:05:41.807Z,4.53
2022-12-28T12:08:43.525Z,4.57
2022-12-28T12:11:46.099Z,4.60
2022-12-28T12:14:53.070Z,4.62
2022-12-28T12:18:06.047Z,4.64
2022-12-28T12:21:15.587Z,4.66
2022-12-28T12:24:17.754Z,4.71
2022-12-28T12:27:37.208Z,4.78
2022-12-28T12:30:42.391Z,4.87
2022-12-28T12:33:46.827Z,4.91
2022-12-28T12:36:59.595Z,4.94
2022-12-28T12:40:40.036Z,5.01
2022-12-28T12:44:04.747Z,5.08
2022-12-28T12:47:29.856Z,5.16
2022-12-28T12:51:03.769Z,5.33
2022-12-28T12:54:33.201Z,5.61
2022-12-28T12:57:40.209Z,5.88
2022-12-28T13:00:49.087Z,6.01
2022-12-28T13:03:53.576Z,6.17
2022-12-28T13:07:03.694Z,6.27
2022-12-28T13:10:05.865Z,6.31
2022-12-28T13:13:07.552Z,6.34
2022-12-28T13:16:10.083Z,6.35
2022-12-28T13:19:18.260Z,6.36
2022-12-28T13:22:33.454Z,6.40
2022-12-28T13:25:35.253Z,6.44
2022-12-28T13:28:37.541Z,6.52
2022-12-28T13:31:40.268Z,6.55
2022-12-28T13:34:49.345Z,6.54
2022-12-28T13:38:12.831Z,6.37
2022-12-28T13:41:34.289Z,6.14
2022-12-28T13:44:40.021Z,5.97
2022-12-28T13:47:45.012Z,5.88
2022-12-28T13:50:46.785Z,5.76
2022-12-28T13:53:53.220Z,5.66
2022-12-28T13:57:14.377Z,5.59
2022-12-28T14:00:18.882Z,5.50
2022-12-28T14:03:20.662Z,5.41
2022-12-28T14:06:22.250Z,5.37
2022-12-28T14:09:23.743Z,5.26
2022-12-28T14:12:25.811Z,5.14
2022-12-28T14:15:27.940Z,5.11
2022-12-28T14:18:31.212Z,5.18
2022-12-28T14:21:35.276Z,5.18
2022-12-28T14:24:37.069Z,5.10
2022-12-28T14:28:00.994Z,5.07
2022-12-28T14:31:05.138Z,5.07
2022-12-28T14:34:07.384Z,5.08
2022-12-28T14:37:30.290Z,5.02
2022-12-28T14:40:35.212Z,4.98
2022-12-28T14:43:37.042Z,4.92
2022-12-28T14:46:40.018Z,4.85
2022-12-28T14:49:42.018Z,4.81
2022-12-28T14:52:46.013Z,4.69
2022-12-28T14:55:53.830Z,4.52
2022-12-28T14:58:58.568Z,4.36
2022-12-28T15:02:00.449Z,4.25
2022-12-28T15:05:02.949Z,4.09
2022-12-28T15:08:05.343Z,4.01
2022-12-28T15:11:06.992Z,3.98
2022-12-28T15:14:08.456Z,3.94
2022-12-28T15:17:10.681Z,3.87
2022-12-28T15:20:12.403Z,3.74
2022-12-28T15:23:14.165Z,3.68
2022-12-28T15:26:15.710Z,3.64
2022-12-28T15:29:32.159Z,3.54
2022-12-28T15:32:38.905Z,3.40
2022-12-28T15:35:40.399Z,3.33
2022-12-28T15:38:42.466Z,3.27
2022-12-28T15:41:44.153Z,3.21
2022-12-28T15:44:45.632Z,3.19
2022-12-28T15:47:47.251Z,3.23
2022-12-28T15:50:49.098Z,3.26
2022-12-28T15:53:50.553Z,3.32
2022-12-28T15:56:53.697Z,3.32
2022-12-28T15:59:55.709Z,3.30
2022-12-28T16:02:57.528Z,3.27
2022-12-28T16:05:59.407Z,3.24
2022-12-28T16:09:01.675Z,3.17
2022-12-28T16:12:03.988Z,3.06
2022-12-28T16:15:06.862Z,2.95
2022-12-28T16:18:08.510Z,2.78
2022-12-28T16:21:11.192Z,2.65
2022-12-28T16:24:12.914Z,2.52
2022-12-28T16:27:14.908Z,2.47
2022-12-28T16:30:16.586Z,2.41
2022-12-28T16:33:18.180Z,2.31
2022-12-28T16:36:19.818Z,2.23
2022-12-28T16:39:21.522Z,2.18
2022-12-28T16:42:23.079Z,2.19
2022-12-28T16:45:24.744Z,2.24
2022-12-28T16:48:26.333Z,2.25
2022-12-28T16:51:29.228Z,2.24
2022-12-28T16:54:30.916Z,2.20
2022-12-28T16:57:32.671Z,2.26
2022-12-28T17:00:34.500Z,2.27
2022-12-28T17:03:36.557Z,2.21
2022-12-28T17:06:40.174Z,2.18
2022-12-28T17:09:45.383Z,2.17
2022-12-28T17:12:51.578Z,2.16
2022-12-28T17:15:53.491Z,2.17
2022-12-28T17:18:55.063Z,2.19
2022-12-28T17:21:56.791Z,2.14
2022-12-28T17:24:58.403Z,2.13
2022-12-28T17:28:00.156Z,2.17
2022-12-28T17:31:16.661Z,2.19
2022-12-28T17:34:19.536Z,2.15
2022-12-28T17:37:21.195Z,2.05
2022-12-28T17:40:22.742Z,1.88
2022-12-28T17:43:24.364Z,1.76
2022-12-28T17:46:28.843Z,1.74
2022-12-28T17:49:31.606Z,1.65
2022-12-28T17:52:33.235Z,1.59
2022-12-28T17:55:35.623Z,1.54
2022-12-28T17:58:37.248Z,1.61
2022-12-28T18:01:39.164Z,1.67
2022-12-28T18:04:40.907Z,1.69
2022-12-28T18:07:42.617Z,1.66
2022-12-28T18:10:45.495Z,1.59
2022-12-28T18:13:47.246Z,1.49
2022-12-28T18:16:48.777Z,1.46
2022-12-28T18:19:50.642Z,1.43
2022-12-28T18:22:52.334Z,1.40
2022-12-28T18:26:08.399Z,1.40
2022-12-28T18:29:10.046Z,1.47
2022-12-28T18:32:11.625Z,1.63
2022-12-28T18:35:13.343Z,1.75
2022-12-28T18:38:14.904Z,1.85
2022-12-28T18:41:18.479Z,1.85
2022-12-28T18:44:20.235Z,1.79
2022-12-28T18:47:21.941Z,1.64
2022-12-28T18:50:23.585Z,1.51
2022-12-28T18:53:26.810Z,1.43
2022-12-28T18:56:28.450Z,1.39
2022-12-28T18:59:30.051Z,1.30
2022-12-28T19:02:32.061Z,1.31
2022-12-28T19:05:34.003Z,1.36
2022-12-28T19:08:37.053Z,1.40
2022-12-28T19:11:39.895Z,1.56
2022-12-28T19:14:41.469Z,1.73
2022-12-28T19:17:43.058Z,1.81
2022-12-28T19:20:44.891Z,1.80
2022-12-28T19:23:50.699Z,1.83
2022-12-28T19:26:52.320Z,1.86
2022-12-28T19:29:54.254Z,1.86
2022-12-28T19:32:55.933Z,1.77
2022-12-28T19:35:57.434Z,1.61
2022-12-28T19:38:59.073Z,1.52
2022-12-28T19:42:00.603Z,1.52
2022-12-28T19:45:07.933Z,1.57
2022-12-28T19:48:11.484Z,1.59
2022-12-28T19:51:13.889Z,1.58
2022-12-28T19:54:15.628Z,1.56
2022-12-28T19:57:17.167Z,1.57
2022-12-28T20:00:18.964Z,1.64
2022-12-28T20:03:21.283Z,1.65
2022-12-28T20:06:24.957Z,1.55
2022-12-28T20:09:26.674Z,1.49
2022-12-28T20:12:28.348Z,1.56
2022-12-28T20:15:29.991Z,1.55
2022-12-28T20:18:31.711Z,1.48
2022-12-28T20:21:33.292Z,1.47
2022-12-28T20:24:34.972Z,1.46
2022-12-28T20:27:36.585Z,1.45
2022-12-28T20:30:38.291Z,1.31
2022-12-28T20:33:40.604Z,1.16
2022-12-28T20:36:42.445Z,1.11
2022-12-28T20:39:43.948Z,1.16
2022-12-28T20:42:45.591Z,1.27
2022-12-28T20:45:53.922Z,1.23
2022-12-28T20:48:56.230Z,1.18
2022-12-28T20:51:57.715Z,1.20
2022-12-28T20:54:59.294Z,1.21
2022-12-28T20:58:00.918Z,1.22
2022-12-28T21:01:08.829Z,1.33
2022-12-28T21:04:10.691Z,1.41
2022-12-28T21:07:12.211Z,1.44
2022-12-28T21:10:13.959Z,1.38
2022-12-28T21:13:15.634Z,1.34
2022-12-28T21:16:18.159Z,1.36
2022-12-28T21:19:19.868Z,1.47
2022-12-28T21:22:21.384Z,1.57
2022-12-28T21:25:23.142Z,1.69
2022-12-28T21:28:24.775Z,1.80
2022-12-28T21:31:26.509Z,1.82
2022-12-28T21:34:29.221Z,1.87
2022-12-28T21:37:30.934Z,1.92
2022-12-28T21:40:32.460Z,2.00
2022-12-28T21:43:34.121Z,2.05
2022-12-28T21:46:35.896Z,2.06
2022-12-28T21:49:37.406Z,2.03
2022-12-28T21:52:39.048Z,2.10
2022-12-28T21:55:40.692Z,2.17
2022-12-28T21:58:45.338Z,2.20
2022-12-28T22:01:47.416Z,2.17
2022-12-28T22:04:49.290Z,2.13
2022-12-28T22:07:50.816Z,2.15
2022-12-28T22:10:56.225Z,2.18
2022-12-28T22:13:58.320Z,2.18
2022-12-28T22:17:00.247Z,2.18
2022-12-28T22:20:02.138Z,2.17
2022-12-28T22:23:04.035Z,2.19
2022-12-28T22:26:05.782Z,2.15
2022-12-28T22:29:07.431Z,2.08
2022-12-28T22:32:09.118Z,2.05
2022-12-28T22:35:11.154Z,2.02
2022-12-28T22:38:12.796Z,1.99
2022-12-28T22:41:14.338Z,1.94
2022-12-28T22:44:15.841Z,1.90
2022-12-28T22:47:17.516Z,1.83
2022-12-28T22:50:19.271Z,1.74
2022-12-28T22:53:20.891Z,1.64
2022-12-28T22:56:22.530Z,1.52
2022-12-28T22:59:24.329Z,1.41
2022-12-28T23:02:25.885Z,1.31
2022-12-28T23:05:27.951Z,1.17
2022-12-28T23:08:29.603Z,1.03
2022-12-28T23:11:31.421Z,0.91
2022-12-28T23:14:33.018Z,0.83
2022-12-28T23:17:34.774Z,0.75
2022-12-28T23:20:38.991Z,0.68
2022-12-28T23:23:40.776Z,0.66
2022-12-28T23:26:42.355Z,0.63
2022-12-28T23:29:45.152Z,0.58
2022-12-28T23:32:47.868Z,0.56
2022-12-28T23:35:49.482Z,0.55
2022-12-28T23:38:51.095Z,0.48
2022-12-28T23:41:52.910Z,0.29
2022-12-28T23:44:54.379Z,0.07
2022-12-28T23:47:55.884Z,-0.07
2022-12-28T23:50:57.476Z,-0.26
2022-12-28T23:53:59.235Z,-0.48
2022-12-28T23:57:00.890Z,-0.72
